Wetterdaten: Woche 28.06.10 - 04.07.10 (KW26)
Datum Zeit Temp. Innen Temp. Aussen UV X Diff Temp. Feuchte Inne Feuchte Auss Sonnenschein Luftdruck Regen ab 0,1 Wind Sonnenschein Windben
28.06.2010 00:00 25,3 C 19,9 C 0,1 UV-I 0,0 C 50 % 70 % 0 % 1021,0 hPa 0,0 l/m 0,0 km/h (0 Bft) 0,00 h 0,1 km/h (0 Bft)
28.06.2010 01:00 25,1 C 18,8 C 0,1 UV-I 0,0 C 51 % 77 % 0 % 1021,1 hPa 0,0 l/m 0,0 km/h (0 Bft) 0,00 h 0,0 km/h (0 Bft)
28.06.2010 02:00 24,9 C 17,8 C 0,1 UV-I 0,0 C 52 % 78 % 0 % 1021,1 hPa 0,0 l/m 0,0 km/h (0 Bft) 0,00 h 0,0 km/h (0 Bft)
28.06.2010 03:00 24,6 C 16,9 C 0,1 UV-I 0,0 C 53 % 79 % 0 % 1020,9 hPa 0,0 l/m 0,0 km/h (0 Bft) 0,00 h 0,0 km/h (0 Bft)
28.06.2010 04:00 24,4 C 16,2 C 0,1 UV-I 0,0 C 53 % 84 % 0 % 1020,6 hPa 0,0 l/m 0,0 km/h (0 Bft) 0,00 h 0,0 km/h (0 Bft)
28.06.2010 05:00 24,2 C 15,6 C 0,2 UV-I 0,0 C 54 % 86 % 0 % 1020,9 hPa 0,0 l/m 0,0 km/h (0 Bft) 0,00 h 0,0 km/h (0 Bft)
28.06.2010 06:00 24,1 C 15,5 C 0,9 UV-I 0,0 C 54 % 87 % 0 % 1021,1 hPa 0,0 l/m 0,0 km/h (0 Bft) 0,00 h 0,0 km/h (0 Bft)
28.06.2010 07:00 24,1 C 16,6 C 2,1 UV-I 0,2 C 54 % 85 % 6 % 1021,5 hPa 0,0 l/m 0,0 km/h (0 Bft) 0,00 h 0,0 km/h (0 Bft)
28.06.2010 08:00 24,2 C 19,8 C 4,3 UV-I 4,9 C 54 % 75 % 84 % 1021,7 hPa 0,0 l/m 0,1 km/h (0 Bft) 0,38 h 0,3 km/h (0 Bft)
28.06.2010 09:00 24,3 C 23,8 C 10,4 UV-I 7,2 C 54 % 64 % 100 % 1021,9 hPa 0,0 l/m 0,8 km/h (0 Bft) 0,97 h 1,5 km/h (1 Bft)
28.06.2010 10:00 24,5 C 26,3 C 14,5 UV-I 7,0 C 54 % 52 % 100 % 1021,8 hPa 0,0 l/m 3,9 km/h (1 Bft) 0,97 h 6,9 km/h (2 Bft)
28.06.2010 11:00 24,7 C 27,7 C 13,0 UV-I 6,2 C 53 % 46 % 100 % 1022,0 hPa 0,0 l/m 6,7 km/h (2 Bft) 0,90 h 7,4 km/h (2 Bft)
28.06.2010 12:00 25,1 C 29,2 C 10,0 UV-I 5,7 C 52 % 37 % 100 % 1022,2 hPa 0,0 l/m 5,2 km/h (1 Bft) 0,85 h 6,8 km/h (2 Bft)
28.06.2010 13:00 25,5 C 30,2 C 9,7 UV-I 5,0 C 50 % 33 % 100 % 1022,2 hPa 0,0 l/m 6,6 km/h (2 Bft) 1,00 h 6,8 km/h (2 Bft)
28.06.2010 14:00 26,4 C 30,9 C 9,9 UV-I 4,4 C 48 % 32 % 100 % 1022,3 hPa 0,0 l/m 7,7 km/h (2 Bft) 1,00 h 8,8 km/h (2 Bft)
28.06.2010 15:00 27,6 C 31,2 C 9,7 UV-I 4,2 C 45 % 32 % 100 % 1023,1 hPa 0,0 l/m 6,6 km/h (2 Bft) 1,00 h 7,6 km/h (2 Bft)
28.06.2010 16:00 27,9 C 30,2 C 7,5 UV-I 2,7 C 44 % 34 % 77 % 1023,1 hPa 0,0 l/m 7,7 km/h (2 Bft) 0,33 h 8,4 km/h (2 Bft)
28.06.2010 17:00 27,6 C 30,0 C 7,7 UV-I 3,2 C 45 % 34 % 91 % 1022,6 hPa 0,0 l/m 5,9 km/h (2 Bft) 0,77 h 7,2 km/h (2 Bft)
28.06.2010 18:00 27,6 C 29,5 C 4,3 UV-I 1,6 C 45 % 34 % 45 % 1022,4 hPa 0,0 l/m 4,8 km/h (1 Bft) 0,20 h 6,1 km/h (2 Bft)
28.06.2010 19:00 27,3 C 29,2 C 3,1 UV-I 0,4 C 45 % 34 % 12 % 1021,7 hPa 0,0 l/m 2,1 km/h (1 Bft) 0,00 h 2,2 km/h (1 Bft)
28.06.2010 20:00 27,0 C 28,5 C 1,6 UV-I 0,0 C 46 % 38 % 0 % 1021,4 hPa 0,0 l/m 1,2 km/h (1 Bft) 0,00 h 0,9 km/h (0 Bft)
28.06.2010 21:00 26,7 C 26,8 C 0,5 UV-I 0,0 C 47 % 43 % 0 % 1021,7 hPa 0,0 l/m 3,2 km/h (1 Bft) 0,00 h 4,2 km/h (1 Bft)
28.06.2010 22:00 26,3 C 24,8 C 0,1 UV-I 0,0 C 48 % 51 % 0 % 1022,1 hPa 0,0 l/m 3,7 km/h (1 Bft) 0,00 h 3,9 km/h (1 Bft)
28.06.2010 23:00 25,9 C 22,9 C 0,1 UV-I 0,0 C 49 % 56 % 0 % 1022,2 hPa 0,0 l/m 0,1 km/h (0 Bft) 0,00 h 0,0 km/h (0 Bft)
29.06.2010 00:00 25,6 C 21,0 C 0,1 UV-I 0,0 C 50 % 62 % 0 % 1022,3 hPa 0,0 l/m 0,0 km/h (0 Bft) 0,00 h 0,0 km/h (0 Bft)
29.06.2010 01:00 25,3 C 19,7 C 0,1 UV-I 0,0 C 51 % 65 % 0 % 1022,4 hPa 0,0 l/m 0,0 km/h (0 Bft) 0,00 h 0,0 km/h (0 Bft)
29.06.2010 02:00 25,1 C 18,8 C 0,1 UV-I 0,0 C 51 % 69 % 0 % 1022,1 hPa 0,0 l/m 0,0 km/h (0 Bft) 0,00 h 0,0 km/h (0 Bft)
29.06.2010 03:00 24,9 C 18,1 C 0,1 UV-I 0,0 C 52 % 72 % 0 % 1022,0 hPa 0,0 l/m 0,0 km/h (0 Bft) 0,00 h 0,0 km/h (0 Bft)
29.06.2010 04:00 24,8 C 17,2 C 0,1 UV-I 0,0 C 52 % 76 % 0 % 1021,8 hPa 0,0 l/m 0,0 km/h (0 Bft) 0,00 h 0,0 km/h (0 Bft)
29.06.2010 05:00 24,6 C 16,8 C 0,2 UV-I 0,0 C 53 % 78 % 0 % 1021,8 hPa 0,0 l/m 0,0 km/h (0 Bft) 0,00 h 0,0 km/h (0 Bft)
29.06.2010 06:00 24,4 C 16,7 C 0,9 UV-I 0,0 C 53 % 80 % 0 % 1021,8 hPa 0,0 l/m 0,0 km/h (0 Bft) 0,00 h 0,0 km/h (0 Bft)
29.06.2010 07:00 24,4 C 17,7 C 2,2 UV-I 0,1 C 53 % 80 % 4 % 1022,2 hPa 0,0 l/m 0,0 km/h (0 Bft) 0,00 h 0,0 km/h (0 Bft)
29.06.2010 08:00 24,5 C 19,7 C 4,1 UV-I 4,6 C 54 % 77 % 82 % 1022,4 hPa 0,0 l/m 0,7 km/h (0 Bft) 0,63 h 1,5 km/h (1 Bft)
29.06.2010 09:00 24,7 C 22,2 C 6,9 UV-I 5,5 C 54 % 68 % 100 % 1022,4 hPa 0,0 l/m 3,8 km/h (1 Bft) 0,83 h 4,8 km/h (1 Bft)
29.06.2010 10:00 25,1 C 24,0 C 6,3 UV-I 3,6 C 53 % 58 % 99 % 1022,6 hPa 0,0 l/m 4,0 km/h (1 Bft) 0,83 h 4,0 km/h (1 Bft)
29.06.2010 11:00 25,4 C 25,2 C 8,9 UV-I 4,6 C 52 % 53 % 100 % 1022,6 hPa 0,0 l/m 4,2 km/h (1 Bft) 0,83 h 5,8 km/h (1 Bft)
29.06.2010 12:00 25,7 C 26,8 C 10,9 UV-I 6,0 C 52 % 48 % 100 % 1022,8 hPa 0,0 l/m 4,7 km/h (1 Bft) 0,77 h 5,0 km/h (1 Bft)
29.06.2010 13:00 26,0 C 27,7 C 8,8 UV-I 4,4 C 51 % 44 % 96 % 1022,8 hPa 0,0 l/m 4,5 km/h (1 Bft) 0,60 h 6,2 km/h (2 Bft)
29.06.2010 14:00 26,3 C 27,5 C 6,2 UV-I 2,6 C 49 % 44 % 72 % 1022,8 hPa 0,0 l/m 5,0 km/h (1 Bft) 0,37 h 6,3 km/h (2 Bft)
29.06.2010 15:00 26,2 C 24,6 C 3,3 UV-I 0,1 C 50 % 59 % 4 % 1022,7 hPa 0,1 l/m 3,3 km/h (1 Bft) 0,00 h 4,1 km/h (1 Bft)
29.06.2010 16:00 26,3 C 24,6 C 6,3 UV-I 2,6 C 51 % 62 % 71 % 1022,9 hPa 0,0 l/m 2,6 km/h (1 Bft) 0,30 h 4,2 km/h (1 Bft)
29.06.2010 17:00 26,8 C 25,6 C 5,8 UV-I 2,5 C 51 % 59 % 71 % 1022,7 hPa 0,0 l/m 4,0 km/h (1 Bft) 0,27 h 5,0 km/h (1 Bft)
29.06.2010 18:00 27,0 C 26,3 C 4,2 UV-I 2,3 C 50 % 52 % 64 % 1022,3 hPa 0,0 l/m 3,7 km/h (1 Bft) 0,07 h 3,8 km/h (1 Bft)
29.06.2010 19:00 26,7 C 26,2 C 2,3 UV-I 0,4 C 50 % 47 % 13 % 1021,8 hPa 0,0 l/m 1,6 km/h (1 Bft) 0,00 h 2,6 km/h (1 Bft)
29.06.2010 20:00 26,5 C 25,6 C 1,4 UV-I 0,0 C 50 % 47 % 0 % 1021,9 hPa 0,0 l/m 6,3 km/h (2 Bft) 0,00 h 8,3 km/h (2 Bft)
29.06.2010 21:00 26,2 C 24,0 C 0,4 UV-I 0,0 C 50 % 52 % 0 % 1022,2 hPa 0,0 l/m 1,9 km/h (1 Bft) 0,00 h 2,6 km/h (1 Bft)
29.06.2010 22:00 25,8 C 21,9 C 0,1 UV-I 0,0 C 51 % 57 % 0 % 1022,6 hPa 0,0 l/m 0,4 km/h (0 Bft) 0,00 h 0,5 km/h (0 Bft)
29.06.2010 23:00 25,4 C 19,8 C 0,0 UV-I 0,0 C 52 % 63 % 0 % 1022,9 hPa 0,0 l/m 0,0 km/h (0 Bft) 0,00 h 0,0 km/h (0 Bft)
30.06.2010 00:00 25,1 C 18,1 C 0,1 UV-I 0,0 C 52 % 70 % 0 % 1023,0 hPa 0,0 l/m 0,0 km/h (0 Bft) 0,00 h 0,0 km/h (0 Bft)
30.06.2010 01:00 24,8 C 16,9 C 0,1 UV-I 0,0 C 53 % 74 % 0 % 1023,1 hPa 0,0 l/m 0,0 km/h (0 Bft) 0,00 h 0,0 km/h (0 Bft)
30.06.2010 02:00 24,6 C 16,2 C 0,1 UV-I 0,0 C 53 % 76 % 0 % 1023,2 hPa 0,0 l/m 0,0 km/h (0 Bft) 0,00 h 0,0 km/h (0 Bft)
30.06.2010 03:00 24,4 C 15,9 C 0,1 UV-I 0,0 C 54 % 78 % 0 % 1022,8 hPa 0,0 l/m 0,0 km/h (0 Bft) 0,00 h 0,0 km/h (0 Bft)
30.06.2010 04:00 24,2 C 15,4 C 0,1 UV-I 0,0 C 54 % 82 % 0 % 1022,8 hPa 0,0 l/m 0,0 km/h (0 Bft) 0,00 h 0,0 km/h (0 Bft)
30.06.2010 05:00 24,0 C 15,3 C 0,2 UV-I 0,0 C 55 % 84 % 0 % 1022,9 hPa 0,0 l/m 0,0 km/h (0 Bft) 0,00 h 0,0 km/h (0 Bft)
30.06.2010 06:00 24,0 C 15,9 C 0,9 UV-I 0,0 C 55 % 83 % 0 % 1023,3 hPa 0,0 l/m 0,0 km/h (0 Bft) 0,00 h 0,0 km/h (0 Bft)
30.06.2010 07:00 24,1 C 17,3 C 2,4 UV-I 1,1 C 55 % 82 % 31 % 1023,2 hPa 0,0 l/m 0,0 km/h (0 Bft) 0,00 h 0,0 km/h (0 Bft)
30.06.2010 08:00 24,4 C 19,7 C 4,1 UV-I 3,6 C 55 % 76 % 85 % 1023,3 hPa 0,0 l/m 0,6 km/h (0 Bft) 0,60 h 0,4 km/h (0 Bft)
30.06.2010 09:00 24,5 C 22,3 C 10,1 UV-I 6,2 C 55 % 69 % 100 % 1023,3 hPa 0,0 l/m 2,1 km/h (1 Bft) 1,00 h 3,7 km/h (1 Bft)
30.06.2010 10:00 24,7 C 24,5 C 14,6 UV-I 6,5 C 55 % 60 % 100 % 1023,2 hPa 0,0 l/m 3,0 km/h (1 Bft) 0,90 h 4,3 km/h (1 Bft)
30.06.2010 11:00 24,8 C 26,0 C 13,3 UV-I 6,4 C 54 % 51 % 100 % 1023,3 hPa 0,0 l/m 3,9 km/h (1 Bft) 0,97 h 4,6 km/h (1 Bft)
30.06.2010 12:00 25,1 C 26,8 C 10,2 UV-I 5,7 C 53 % 49 % 100 % 1023,3 hPa 0,0 l/m 4,7 km/h (1 Bft) 0,97 h 5,8 km/h (1 Bft)
30.06.2010 13:00 25,5 C 28,0 C 10,0 UV-I 5,7 C 53 % 48 % 100 % 1023,0 hPa 0,0 l/m 4,9 km/h (1 Bft) 0,93 h 5,4 km/h (1 Bft)
30.06.2010 14:00 26,5 C 29,0 C 9,6 UV-I 5,2 C 51 % 42 % 100 % 1022,9 hPa 0,0 l/m 5,0 km/h (1 Bft) 0,93 h 5,6 km/h (1 Bft)
30.06.2010 15:00 28,1 C 29,6 C 9,6 UV-I 4,6 C 46 % 39 % 100 % 1024,2 hPa 0,0 l/m 5,3 km/h (1 Bft) 1,00 h 5,9 km/h (2 Bft)
30.06.2010 16:00 28,9 C 29,6 C 10,2 UV-I 4,0 C 44 % 39 % 89 % 1024,1 hPa 0,0 l/m 3,6 km/h (1 Bft) 0,73 h 4,5 km/h (1 Bft)
30.06.2010 17:00 29,6 C 30,3 C 10,7 UV-I 4,6 C 42 % 36 % 100 % 1024,0 hPa 0,0 l/m 4,2 km/h (1 Bft) 1,00 h 6,1 km/h (2 Bft)
30.06.2010 18:00 29,1 C 28,7 C 3,2 UV-I 1,9 C 43 % 40 % 53 % 1022,5 hPa 0,0 l/m 3,2 km/h (1 Bft) 0,13 h 4,1 km/h (1 Bft)
30.06.2010 19:00 28,2 C 27,9 C 2,4 UV-I 0,3 C 45 % 45 % 8 % 1021,5 hPa 0,0 l/m 5,8 km/h (2 Bft) 0,00 h 7,7 km/h (2 Bft)
30.06.2010 20:00 27,6 C 26,7 C 1,2 UV-I 0,0 C 47 % 50 % 0 % 1021,4 hPa 0,0 l/m 8,1 km/h (2 Bft) 0,00 h 9,1 km/h (2 Bft)
30.06.2010 21:00 27,2 C 25,2 C 0,3 UV-I 0,0 C 48 % 54 % 0 % 1021,2 hPa 0,0 l/m 1,6 km/h (1 Bft) 0,00 h 1,4 km/h (1 Bft)
30.06.2010 22:00 26,6 C 23,3 C 0,0 UV-I 0,0 C 49 % 64 % 0 % 1021,6 hPa 0,0 l/m 4,1 km/h (1 Bft) 0,00 h 4,1 km/h (1 Bft)
30.06.2010 23:00 26,2 C 21,8 C 0,0 UV-I 0,0 C 51 % 70 % 0 % 1021,6 hPa 0,0 l/m 0,2 km/h (0 Bft) 0,00 h 0,0 km/h (0 Bft)
01.07.2010 00:00 25,8 C 20,2 C 0,0 UV-I 0,0 C 54 % 75 % 0 % 1021,4 hPa 0,0 l/m 0,0 km/h (0 Bft) 0,00 h 0,0 km/h (0 Bft)
01.07.2010 01:00 25,5 C 19,4 C 0,0 UV-I 0,0 C 55 % 80 % 0 % 1021,1 hPa 0,0 l/m 0,0 km/h (0 Bft) 0,00 h 0,0 km/h (0 Bft)
01.07.2010 02:00 25,3 C 18,7 C 0,0 UV-I 0,0 C 57 % 84 % 0 % 1020,7 hPa 0,0 l/m 0,0 km/h (0 Bft) 0,00 h 0,0 km/h (0 Bft)
01.07.2010 03:00 25,1 C 18,3 C 0,0 UV-I 0,0 C 58 % 86 % 0 % 1020,2 hPa 0,0 l/m 0,1 km/h (0 Bft) 0,00 h 0,1 km/h (0 Bft)
01.07.2010 04:00 24,9 C 18,0 C 0,0 UV-I 0,0 C 58 % 86 % 0 % 1019,9 hPa 0,0 l/m 0,1 km/h (0 Bft) 0,00 h 0,0 km/h (0 Bft)
01.07.2010 05:00 24,7 C 17,8 C 0,0 UV-I 0,0 C 58 % 87 % 0 % 1019,9 hPa 0,0 l/m 1,3 km/h (1 Bft) 0,00 h 2,3 km/h (1 Bft)
01.07.2010 06:00 24,6 C 18,0 C 0,7 UV-I 0,0 C 59 % 85 % 0 % 1019,9 hPa 0,0 l/m 1,9 km/h (1 Bft) 0,00 h 2,4 km/h (1 Bft)
01.07.2010 07:00 24,7 C 18,7 C 2,0 UV-I 0,1 C 59 % 84 % 2 % 1019,8 hPa 0,0 l/m 3,3 km/h (1 Bft) 0,00 h 5,0 km/h (1 Bft)
01.07.2010 08:00 24,9 C 21,2 C 4,4 UV-I 3,8 C 58 % 76 % 83 % 1019,7 hPa 0,0 l/m 3,0 km/h (1 Bft) 0,50 h 4,9 km/h (1 Bft)
01.07.2010 09:00 25,1 C 23,9 C 8,9 UV-I 4,4 C 58 % 68 % 100 % 1019,8 hPa 0,0 l/m 4,0 km/h (1 Bft) 0,93 h 4,5 km/h (1 Bft)
01.07.2010 10:00 25,3 C 26,7 C 12,4 UV-I 5,1 C 57 % 58 % 100 % 1019,7 hPa 0,0 l/m 4,5 km/h (1 Bft) 0,97 h 5,9 km/h (2 Bft)
01.07.2010 11:00 25,6 C 28,4 C 11,3 UV-I 4,9 C 56 % 49 % 100 % 1019,6 hPa 0,0 l/m 3,9 km/h (1 Bft) 0,90 h 4,9 km/h (1 Bft)
01.07.2010 12:00 25,9 C 29,7 C 10,3 UV-I 5,5 C 55 % 43 % 100 % 1019,5 hPa 0,0 l/m 4,6 km/h (1 Bft) 0,87 h 5,9 km/h (2 Bft)
01.07.2010 13:00 26,3 C 30,8 C 10,0 UV-I 4,4 C 53 % 38 % 100 % 1019,4 hPa 0,0 l/m 4,8 km/h (1 Bft) 0,87 h 7,4 km/h (2 Bft)
01.07.2010 14:00 27,0 C 30,9 C 8,9 UV-I 3,7 C 51 % 38 % 98 % 1019,1 hPa 0,0 l/m 4,4 km/h (1 Bft) 0,83 h 5,9 km/h (2 Bft)
01.07.2010 15:00 27,8 C 31,8 C 10,1 UV-I 4,3 C 49 % 36 % 100 % 1019,5 hPa 0,0 l/m 4,9 km/h (1 Bft) 0,97 h 5,7 km/h (1 Bft)
01.07.2010 16:00 28,8 C 32,1 C 8,8 UV-I 3,6 C 46 % 35 % 93 % 1019,8 hPa 0,0 l/m 4,4 km/h (1 Bft) 0,73 h 5,4 km/h (1 Bft)
01.07.2010 17:00 28,8 C 31,7 C 6,7 UV-I 2,5 C 46 % 36 % 71 % 1019,0 hPa 0,0 l/m 3,0 km/h (1 Bft) 0,13 h 4,4 km/h (1 Bft)
01.07.2010 18:00 28,4 C 30,9 C 3,2 UV-I 0,8 C 47 % 38 % 22 % 1017,8 hPa 0,0 l/m 1,2 km/h (1 Bft) 0,00 h 1,0 km/h (0 Bft)
01.07.2010 19:00 28,1 C 30,7 C 2,7 UV-I 0,6 C 47 % 38 % 18 % 1017,3 hPa 0,0 l/m 1,2 km/h (1 Bft) 0,00 h 2,1 km/h (1 Bft)
01.07.2010 20:00 27,7 C 29,7 C 0,7 UV-I 0,0 C 50 % 43 % 0 % 1017,1 hPa 0,0 l/m 0,1 km/h (0 Bft) 0,00 h 0,1 km/h (0 Bft)
01.07.2010 21:00 27,5 C 28,4 C 0,0 UV-I 0,0 C 51 % 48 % 0 % 1016,9 hPa 0,0 l/m 0,2 km/h (0 Bft) 0,00 h 0,1 km/h (0 Bft)
01.07.2010 22:00 27,2 C 26,6 C 0,0 UV-I 0,0 C 51 % 51 % 0 % 1017,0 hPa 0,0 l/m 0,2 km/h (0 Bft) 0,00 h 0,6 km/h (0 Bft)
01.07.2010 23:00 26,8 C 25,2 C 0,0 UV-I 0,0 C 52 % 55 % 0 % 1017,1 hPa 0,0 l/m 1,8 km/h (1 Bft) 0,00 h 2,5 km/h (1 Bft)
02.07.2010 00:00 26,5 C 24,0 C 0,0 UV-I 0,0 C 53 % 58 % 0 % 1017,1 hPa 0,0 l/m 1,1 km/h (1 Bft) 0,00 h 2,1 km/h (1 Bft)
02.07.2010 01:00 26,3 C 23,0 C 0,0 UV-I 0,0 C 53 % 61 % 0 % 1017,2 hPa 0,0 l/m 1,9 km/h (1 Bft) 0,00 h 1,6 km/h (1 Bft)
02.07.2010 02:00 26,1 C 21,9 C 0,0 UV-I 0,0 C 53 % 65 % 0 % 1017,1 hPa 0,0 l/m 0,7 km/h (0 Bft) 0,00 h 1,6 km/h (1 Bft)
02.07.2010 03:00 26,0 C 20,6 C 0,0 UV-I 0,0 C 54 % 69 % 0 % 1017,2 hPa 0,0 l/m 0,8 km/h (0 Bft) 0,00 h 1,1 km/h (1 Bft)
02.07.2010 04:00 25,8 C 19,9 C 0,0 UV-I 0,0 C 54 % 71 % 0 % 1017,3 hPa 0,0 l/m 2,0 km/h (1 Bft) 0,00 h 2,4 km/h (1 Bft)
02.07.2010 05:00 25,6 C 19,5 C 0,0 UV-I 0,0 C 54 % 72 % 0 % 1017,1 hPa 0,0 l/m 2,0 km/h (1 Bft) 0,00 h 2,8 km/h (1 Bft)
02.07.2010 06:00 25,4 C 19,2 C 0,2 UV-I 0,0 C 54 % 73 % 0 % 1017,1 hPa 0,0 l/m 2,1 km/h (1 Bft) 0,00 h 4,4 km/h (1 Bft)
02.07.2010 07:00 25,2 C 20,2 C 1,5 UV-I 0,0 C 55 % 72 % 1 % 1017,1 hPa 0,0 l/m 5,4 km/h (1 Bft) 0,00 h 6,9 km/h (2 Bft)
02.07.2010 08:00 25,2 C 22,6 C 3,1 UV-I 3,7 C 55 % 66 % 75 % 1017,3 hPa 0,0 l/m 5,1 km/h (1 Bft) 0,63 h 5,7 km/h (1 Bft)
02.07.2010 09:00 25,5 C 25,9 C 9,8 UV-I 4,6 C 55 % 58 % 100 % 1017,4 hPa 0,0 l/m 6,8 km/h (2 Bft) 0,97 h 8,3 km/h (2 Bft)
02.07.2010 10:00 25,8 C 28,9 C 15,8 UV-I 5,5 C 55 % 51 % 100 % 1017,5 hPa 0,0 l/m 5,8 km/h (2 Bft) 0,83 h 7,1 km/h (2 Bft)
02.07.2010 11:00 26,2 C 31,5 C 12,8 UV-I 4,8 C 55 % 44 % 100 % 1017,8 hPa 0,0 l/m 5,8 km/h (2 Bft) 0,70 h 7,1 km/h (2 Bft)
02.07.2010 12:00 26,5 C 32,6 C 9,8 UV-I 4,1 C 54 % 39 % 100 % 1017,9 hPa 0,0 l/m 5,5 km/h (1 Bft) 0,53 h 6,9 km/h (2 Bft)
02.07.2010 13:00 27,0 C 33,3 C 9,2 UV-I 4,0 C 53 % 37 % 98 % 1018,1 hPa 0,0 l/m 4,7 km/h (1 Bft) 1,00 h 6,3 km/h (2 Bft)
02.07.2010 14:00 27,7 C 33,9 C 9,7 UV-I 4,1 C 50 % 33 % 96 % 1018,3 hPa 0,0 l/m 4,1 km/h (1 Bft) 0,97 h 4,7 km/h (1 Bft)
02.07.2010 15:00 29,3 C 35,5 C 10,6 UV-I 4,4 C 46 % 29 % 100 % 1019,5 hPa 0,0 l/m 5,2 km/h (1 Bft) 0,93 h 5,9 km/h (2 Bft)
02.07.2010 16:00 30,7 C 35,8 C 10,2 UV-I 3,1 C 44 % 29 % 80 % 1020,2 hPa 0,0 l/m 5,9 km/h (2 Bft) 0,63 h 6,9 km/h (2 Bft)
02.07.2010 17:00 30,6 C 35,6 C 10,2 UV-I 3,3 C 44 % 30 % 94 % 1019,0 hPa 0,0 l/m 5,6 km/h (1 Bft) 0,90 h 6,3 km/h (2 Bft)
02.07.2010 18:00 30,2 C 34,5 C 4,2 UV-I 2,4 C 45 % 31 % 68 % 1018,0 hPa 0,0 l/m 4,6 km/h (1 Bft) 0,33 h 6,0 km/h (2 Bft)
02.07.2010 19:00 29,3 C 33,5 C 2,5 UV-I 0,1 C 46 % 33 % 2 % 1017,0 hPa 0,0 l/m 2,8 km/h (1 Bft) 0,00 h 3,8 km/h (1 Bft)
02.07.2010 20:00 28,8 C 32,2 C 0,6 UV-I 0,0 C 48 % 37 % 0 % 1017,0 hPa 0,0 l/m 0,6 km/h (0 Bft) 0,00 h 0,8 km/h (0 Bft)
02.07.2010 21:00 28,5 C 30,4 C 0,0 UV-I 0,0 C 49 % 41 % 0 % 1017,3 hPa 0,0 l/m 0,5 km/h (0 Bft) 0,00 h 0,8 km/h (0 Bft)
02.07.2010 22:00 28,1 C 28,5 C 0,0 UV-I 0,0 C 50 % 45 % 0 % 1017,4 hPa 0,0 l/m 0,7 km/h (0 Bft) 0,00 h 0,5 km/h (0 Bft)
02.07.2010 23:00 27,8 C 26,7 C 0,0 UV-I 0,0 C 51 % 49 % 0 % 1017,6 hPa 0,0 l/m 0,3 km/h (0 Bft) 0,00 h 0,4 km/h (0 Bft)
03.07.2010 00:00 27,4 C 25,5 C 0,0 UV-I 0,0 C 51 % 53 % 0 % 1017,7 hPa 0,0 l/m 1,0 km/h (0 Bft) 0,00 h 2,0 km/h (1 Bft)
03.07.2010 01:00 27,2 C 24,6 C 0,0 UV-I 0,0 C 52 % 56 % 0 % 1017,7 hPa 0,0 l/m 1,8 km/h (1 Bft) 0,00 h 2,9 km/h (1 Bft)
03.07.2010 02:00 27,0 C 23,7 C 0,0 UV-I 0,0 C 52 % 60 % 0 % 1017,6 hPa 0,0 l/m 1,4 km/h (1 Bft) 0,00 h 2,3 km/h (1 Bft)
03.07.2010 03:00 26,9 C 23,0 C 0,0 UV-I 0,0 C 53 % 63 % 0 % 1017,7 hPa 0,0 l/m 0,4 km/h (0 Bft) 0,00 h 0,2 km/h (0 Bft)
03.07.2010 04:00 26,7 C 22,0 C 0,0 UV-I 0,0 C 53 % 67 % 0 % 1017,9 hPa 0,0 l/m 0,6 km/h (0 Bft) 0,00 h 1,0 km/h (0 Bft)
03.07.2010 05:00 26,6 C 21,6 C 0,0 UV-I 0,0 C 54 % 68 % 0 % 1017,9 hPa 0,0 l/m 1,0 km/h (0 Bft) 0,00 h 1,7 km/h (1 Bft)
03.07.2010 06:00 26,4 C 21,3 C 0,2 UV-I 0,0 C 54 % 72 % 0 % 1018,3 hPa 0,0 l/m 0,8 km/h (0 Bft) 0,00 h 1,4 km/h (1 Bft)
03.07.2010 07:00 26,4 C 22,3 C 1,3 UV-I 0,1 C 55 % 75 % 3 % 1018,5 hPa 0,0 l/m 0,3 km/h (0 Bft) 0,00 h 0,6 km/h (0 Bft)
03.07.2010 08:00 26,5 C 23,6 C 2,6 UV-I 3,1 C 56 % 72 % 75 % 1018,8 hPa 0,0 l/m 1,1 km/h (1 Bft) 0,70 h 2,2 km/h (1 Bft)
03.07.2010 09:00 26,6 C 25,6 C 7,5 UV-I 4,9 C 56 % 67 % 100 % 1018,9 hPa 0,0 l/m 1,9 km/h (1 Bft) 1,00 h 2,5 km/h (1 Bft)
03.07.2010 10:00 26,8 C 27,6 C 10,1 UV-I 5,0 C 56 % 61 % 100 % 1019,0 hPa 0,0 l/m 2,0 km/h (1 Bft) 0,93 h 2,8 km/h (1 Bft)
03.07.2010 11:00 27,0 C 29,3 C 11,9 UV-I 6,0 C 56 % 56 % 100 % 1019,4 hPa 0,0 l/m 3,8 km/h (1 Bft) 0,90 h 5,2 km/h (1 Bft)
03.07.2010 12:00 27,3 C 30,5 C 10,2 UV-I 6,0 C 56 % 52 % 100 % 1019,5 hPa 0,0 l/m 4,3 km/h (1 Bft) 0,90 h 5,2 km/h (1 Bft)
03.07.2010 13:00 27,8 C 31,6 C 9,9 UV-I 5,2 C 55 % 49 % 100 % 1019,4 hPa 0,0 l/m 4,1 km/h (1 Bft) 0,90 h 4,7 km/h (1 Bft)
03.07.2010 14:00 28,5 C 32,5 C 10,0 UV-I 4,5 C 54 % 47 % 100 % 1019,5 hPa 0,0 l/m 5,4 km/h (1 Bft) 0,90 h 5,8 km/h (2 Bft)
03.07.2010 15:00 29,1 C 31,9 C 3,6 UV-I 1,8 C 52 % 47 % 42 % 1019,9 hPa 0,0 l/m 5,8 km/h (2 Bft) 0,27 h 6,3 km/h (2 Bft)
03.07.2010 16:00 28,6 C 28,8 C 0,0 UV-I 0,0 C 53 % 55 % 0 % 1020,1 hPa 0,0 l/m 6,7 km/h (2 Bft) 0,00 h 8,3 km/h (2 Bft)
03.07.2010 17:00 28,2 C 25,2 C 0,7 UV-I 0,1 C 56 % 70 % 2 % 1021,1 hPa 0,1 l/m 5,7 km/h (1 Bft) 0,00 h 6,7 km/h (2 Bft)
03.07.2010 18:00 28,0 C 25,1 C 2,5 UV-I 1,1 C 57 % 72 % 30 % 1021,1 hPa 0,0 l/m 9,8 km/h (2 Bft) 0,00 h 11,4 km/h (2 Bft)
03.07.2010 19:00 28,0 C 25,4 C 1,0 UV-I 0,4 C 57 % 70 % 12 % 1021,3 hPa 0,0 l/m 8,9 km/h (2 Bft) 0,00 h 10,3 km/h (2 Bft)
03.07.2010 20:00 27,7 C 25,0 C 0,0 UV-I 0,0 C 57 % 70 % 0 % 1021,6 hPa 0,0 l/m 7,8 km/h (2 Bft) 0,00 h 7,6 km/h (2 Bft)
03.07.2010 21:00 27,3 C 22,3 C 0,0 UV-I 0,0 C 58 % 80 % 0 % 1022,4 hPa 2,5 l/m 2,2 km/h (1 Bft) 0,00 h 3,4 km/h (1 Bft)
03.07.2010 22:00 26,9 C 21,0 C 0,0 UV-I 0,0 C 61 % 87 % 0 % 1023,2 hPa 0,0 l/m 0,9 km/h (0 Bft) 0,00 h 2,9 km/h (1 Bft)
03.07.2010 23:00 26,7 C 20,6 C 0,0 UV-I 0,0 C 62 % 89 % 0 % 1023,5 hPa 0,0 l/m 0,6 km/h (0 Bft) 0,00 h 0,3 km/h (0 Bft)
04.07.2010 00:00 26,4 C 19,9 C 0,0 UV-I 0,0 C 63 % 90 % 0 % 1023,6 hPa 0,0 l/m 0,2 km/h (0 Bft) 0,00 h 0,5 km/h (0 Bft)
04.07.2010 01:00 26,2 C 19,6 C 0,0 UV-I 0,0 C 63 % 91 % 0 % 1023,7 hPa 0,0 l/m 1,2 km/h (1 Bft) 0,00 h 2,8 km/h (1 Bft)
04.07.2010 02:00 26,1 C 19,7 C 0,0 UV-I 0,0 C 63 % 92 % 0 % 1024,1 hPa 0,0 l/m 3,3 km/h (1 Bft) 0,00 h 4,7 km/h (1 Bft)
04.07.2010 03:00 26,0 C 19,4 C 0,0 UV-I 0,0 C 63 % 91 % 0 % 1024,0 hPa 0,0 l/m 5,0 km/h (1 Bft) 0,00 h 5,2 km/h (1 Bft)
04.07.2010 04:00 26,0 C 18,8 C 0,0 UV-I 0,0 C 62 % 91 % 0 % 1023,8 hPa 0,0 l/m 3,5 km/h (1 Bft) 0,00 h 3,1 km/h (1 Bft)
04.07.2010 05:00 25,7 C 17,9 C 0,0 UV-I 0,0 C 62 % 92 % 0 % 1024,2 hPa 0,0 l/m 0,1 km/h (0 Bft) 0,00 h 0,0 km/h (0 Bft)
04.07.2010 06:00 25,5 C 17,8 C 0,0 UV-I 0,0 C 62 % 93 % 0 % 1024,4 hPa 0,0 l/m 0,5 km/h (0 Bft) 0,00 h 0,7 km/h (0 Bft)
04.07.2010 07:00 25,5 C 18,5 C 0,3 UV-I 0,7 C 62 % 92 % 21 % 1024,8 hPa 0,0 l/m 0,5 km/h (0 Bft) 0,00 h 0,7 km/h (0 Bft)
04.07.2010 08:00 25,7 C 19,3 C 2,3 UV-I 2,7 C 61 % 89 % 72 % 1024,9 hPa 0,0 l/m 1,9 km/h (1 Bft) 0,40 h 2,4 km/h (1 Bft)
04.07.2010 09:00 25,8 C 20,6 C 5,2 UV-I 3,7 C 61 % 85 % 92 % 1024,7 hPa 0,0 l/m 1,7 km/h (1 Bft) 0,70 h 2,4 km/h (1 Bft)
04.07.2010 10:00 26,1 C 21,6 C 3,6 UV-I 2,9 C 61 % 81 % 74 % 1024,9 hPa 0,0 l/m 2,8 km/h (1 Bft) 0,40 h 2,4 km/h (1 Bft)
04.07.2010 11:00 26,3 C 21,8 C 4,0 UV-I 2,9 C 60 % 80 % 78 % 1025,0 hPa 0,0 l/m 2,8 km/h (1 Bft) 0,27 h 4,5 km/h (1 Bft)
04.07.2010 12:00 26,3 C 22,3 C 6,0 UV-I 3,4 C 60 % 79 % 73 % 1025,0 hPa 0,0 l/m 3,2 km/h (1 Bft) 0,27 h 3,6 km/h (1 Bft)
04.07.2010 13:00 26,8 C 25,0 C 10,2 UV-I 5,8 C 59 % 67 % 100 % 1024,9 hPa 0,0 l/m 5,0 km/h (1 Bft) 0,70 h 6,4 km/h (2 Bft)
04.07.2010 14:00 27,4 C 25,7 C 8,7 UV-I 4,4 C 57 % 63 % 100 % 1024,7 hPa 0,0 l/m 4,8 km/h (1 Bft) 0,67 h 5,2 km/h (1 Bft)
04.07.2010 15:00 28,6 C 27,0 C 9,3 UV-I 4,3 C 54 % 57 % 99 % 1025,0 hPa 0,0 l/m 4,9 km/h (1 Bft) 0,70 h 6,6 km/h (2 Bft)
04.07.2010 16:00 29,8 C 28,1 C 10,7 UV-I 4,8 C 49 % 51 % 100 % 1025,3 hPa 0,0 l/m 5,4 km/h (1 Bft) 0,67 h 7,4 km/h (2 Bft)
04.07.2010 17:00 30,8 C 28,6 C 9,6 UV-I 4,0 C 45 % 45 % 92 % 1024,6 hPa 0,0 l/m 5,7 km/h (1 Bft) 0,68 h 6,1 km/h (2 Bft)
04.07.2010 18:00 30,3 C 27,7 C 4,2 UV-I 2,9 C 44 % 43 % 71 % 1023,7 hPa 0,0 l/m 5,7 km/h (1 Bft) 0,53 h 7,0 km/h (2 Bft)
04.07.2010 19:00 29,2 C 26,9 C 1,9 UV-I 0,0 C 45 % 42 % 1 % 1022,2 hPa 0,0 l/m 4,4 km/h (1 Bft) 0,00 h 4,5 km/h (1 Bft)
04.07.2010 20:00 28,5 C 25,9 C 0,5 UV-I 0,0 C 46 % 44 % 0 % 1021,8 hPa 0,0 l/m 2,6 km/h (1 Bft) 0,00 h 3,6 km/h (1 Bft)
04.07.2010 21:00 28,0 C 24,3 C 0,0 UV-I 0,0 C 46 % 50 % 0 % 1021,7 hPa 0,0 l/m 0,5 km/h (0 Bft) 0,00 h 1,0 km/h (0 Bft)
04.07.2010 22:00 27,3 C 22,1 C 0,0 UV-I 0,0 C 47 % 56 % 0 % 1021,8 hPa 0,0 l/m 0,0 km/h (0 Bft) 0,00 h 0,0 km/h (0 Bft)
04.07.2010 23:00 26,8 C 20,1 C 0,0 UV-I 0,0 C 48 % 62 % 0 % 1022,4 hPa 0,0 l/m 0,0 km/h (0 Bft) 0,00 h 0,0 km/h (0 Bft)
Min-Datum _ 30.06.10 30.06.10 28.06.10 28.06.10 30.06.10 02.07.10 28.06.10 01.07.10 - 28.06.10 - 28.06.10
_ Min-Zeit 05:08 05:04 22:06 00:00 17:24 15:18 00:00 21:30 - 00:00 - 00:00
Minimum _ 24,0 C 15,2 C 0,0 UV-I 0,0 C 42 % 27 % 0 % 1016,8 hPa - 0,0 km/h (0 Bft) - 0,0 km/h (0 Bft)
Max-Datum _ 02.07.10 02.07.10 02.07.10 28.06.10 03.07.10 04.07.10 28.06.10 04.07.10 03.07.10 03.07.10 28.06.10 03.07.10
_ Max-Zeit 16:32 16:28 10:18 09:14 23:58 06:18 08:16 16:54 21:32 18:52 08:14 18:52
Maximum _ 30,9 C 36,3 C 16,6 UV-I 7,6 C 63 % 93 % 100 % 1026,1 hPa 2,5 l/m 14,1 km/h
SW (3 Bft)
0,03 h 29,6 km/h
SW (5 Bft)
Durchschnitt _ 26,5 C 24,4 C 3,9 UV-I 1,9 C 53 % 61 % 40 % 1021,1 hPa #2,7 l/m 2,7 km/h (1 Bft) #51:39 h 3,4 km/h (1 Bft)
© 2012 W. Hausmann